Time;durP1;ratioP1;P1;durP2;ratioP2;P2;SDS_P1;SDS_P2;PMS_P1;PMS_P2;Temp;Humidity;BMP_temperature;BMP_pressure;BME280_temperature;BME280_humidity;BME280_pressure;Samples;Min_cycle;Max_cycle;Signal;HPM_P1;HPM_P2
2023/08/09 00:00:44;;;;;;;4.53;1.80;;;21.20;81.40;;;;;;5023170;28;20037;-92
2023/08/09 00:03:10;;;;;;;1.85;1.42;;;21.20;81.40;;;;;;5024387;28;20026;-91
2023/08/09 00:05:36;;;;;;;4.25;1.90;;;21.20;81.50;;;;;;5027863;28;20049;-90
2023/08/09 00:08:03;;;;;;;7.32;1.98;;;21.20;81.50;;;;;;5010503;28;20061;-89
2023/08/09 00:10:29;;;;;;;3.30;2.55;;;21.20;81.60;;;;;;5014270;28;20093;-91
2023/08/09 00:12:56;;;;;;;4.15;1.95;;;21.20;81.50;;;;;;5021507;28;20096;-91
2023/08/09 00:15:23;;;;;;;3.28;1.80;;;21.20;81.40;;;;;;5011435;28;20022;-91
2023/08/09 00:17:49;;;;;;;;;;;21.20;81.40;;;;;;5040974;28;20422;-90
2023/08/09 00:20:15;;;;;;;2.30;1.60;;;21.20;81.10;;;;;;4998750;28;19952;-91
2023/08/09 00:22:43;;;;;;;4.75;1.95;;;21.10;81.60;;;;;;5013034;28;20025;-90
2023/08/09 00:25:13;;;;;;;2.67;1.65;;;21.20;81.80;;;;;;5029134;28;20427;-91
2023/08/09 00:27:40;;;;;;;2.65;1.70;;;21.10;81.60;;;;;;5021635;28;20084;-90
2023/08/09 00:30:10;;;;;;;3.75;1.73;;;21.20;81.40;;;;;;5048898;28;20041;-91
2023/08/09 00:32:37;;;;;;;6.63;1.60;;;21.30;81.20;;;;;;5039724;28;20394;-91
2023/08/09 00:35:04;;;;;;;4.53;1.85;;;21.30;81.10;;;;;;5054078;28;20533;-90
2023/08/09 00:37:31;;;;;;;7.40;2.35;;;21.40;80.90;;;;;;5057573;28;20048;-91
2023/08/09 00:39:57;;;;;;;3.58;2.10;;;21.40;80.80;;;;;;5051846;28;20029;-89
2023/08/09 00:42:23;;;;;;;2.67;1.90;;;21.40;80.80;;;;;;5062636;28;20016;-89
2023/08/09 00:44:50;;;;;;;3.10;1.98;;;21.40;80.80;;;;;;5069137;28;20064;-89
2023/08/09 00:47:16;;;;;;;2.88;1.60;;;21.40;80.70;;;;;;5069369;28;20020;-88
2023/08/09 00:49:44;;;;;;;1.63;1.35;;;21.30;80.60;;;;;;5074917;28;20151;-90
2023/08/09 00:52:10;;;;;;;5.53;1.95;;;21.30;80.70;;;;;;5082842;28;20021;-88
2023/08/09 00:54:39;;;;;;;4.10;1.60;;;21.30;80.70;;;;;;5071326;28;20155;-89
2023/08/09 00:57:07;;;;;;;3.47;1.77;;;21.30;80.80;;;;;;5065618;28;20112;-89
2023/08/09 00:59:33;;;;;;;1.63;1.48;;;21.20;80.90;;;;;;5042614;28;20441;-89
2023/08/09 01:02:00;;;;;;;3.03;1.85;;;21.20;81.10;;;;;;5068417;28;20028;-87
2023/08/09 01:04:26;;;;;;;5.95;1.95;;;21.20;81.20;;;;;;5065143;28;20121;-89
2023/08/09 01:07:26;;;;;;;3.83;1.70;;;21.10;81.40;;;;;;5058818;28;20088;-87
2023/08/09 01:10:05;;;;;;;5.38;2.10;;;21.20;81.60;;;;;;5075489;28;20025;-87
2023/08/09 01:12:38;;;;;;;2.88;1.92;;;21.10;81.80;;;;;;5082699;28;20068;-90
2023/08/09 01:15:05;;;;;;;5.18;2.53;;;21.10;82.00;;;;;;5100318;28;20028;-91
2023/08/09 01:17:33;;;;;;;6.15;1.85;;;21.10;82.20;;;;;;5085670;28;20024;-91
2023/08/09 01:20:00;;;;;;;3.90;2.03;;;21.10;82.20;;;;;;5089042;28;20039;-91
2023/08/09 01:22:35;;;;;;;3.60;2.25;;;21.10;82.20;;;;;;5066697;28;20017;-88
2023/08/09 01:25:06;;;;;;;7.28;2.30;;;21.10;82.20;;;;;;5065516;28;20028;-85
2023/08/09 01:27:34;;;;;;;4.28;1.90;;;21.20;82.20;;;;;;5076297;28;20064;-87
2023/08/09 01:30:00;;;;;;;;;;;21.10;82.20;;;;;;5050047;28;20056;-90
2023/08/09 01:32:28;;;;;;;3.35;2.10;;;21.10;81.90;;;;;;5062158;28;19905;-88
2023/08/09 01:34:54;;;;;;;3.38;1.85;;;21.10;82.50;;;;;;5040362;28;20506;-89
2023/08/09 01:37:36;;;;;;;4.57;2.07;;;21.00;82.50;;;;;;5056743;28;20020;-89
2023/08/09 01:40:09;;;;;;;3.45;3.03;;;21.00;82.50;;;;;;5055063;28;20453;-92
2023/08/09 01:42:42;;;;;;;4.80;3.00;;;21.00;82.90;;;;;;5060142;28;20533;-88
2023/08/09 01:45:10;;;;;;;5.50;2.20;;;20.90;83.30;;;;;;5046677;28;20512;-90
2023/08/09 01:47:38;;;;;;;5.43;1.85;;;20.90;83.70;;;;;;5066064;28;20025;-88
2023/08/09 01:50:05;;;;;;;5.88;2.22;;;20.80;84.10;;;;;;5088312;28;20028;-89
2023/08/09 01:52:31;;;;;;;6.28;2.85;;;20.80;84.30;;;;;;5063442;28;20084;-89
2023/08/09 01:54:57;;;;;;;6.72;2.58;;;20.70;84.60;;;;;;5074008;28;20039;-87
2023/08/09 01:57:24;;;;;;;5.13;2.10;;;20.70;85.00;;;;;;5062902;28;20021;-90
2023/08/09 01:59:50;;;;;;;3.88;1.88;;;20.60;85.20;;;;;;5057943;28;20025;-89
2023/08/09 02:02:17;;;;;;;3.20;1.77;;;20.60;85.60;;;;;;5066107;28;20032;-91
2023/08/09 02:04:43;;;;;;;;;;;20.50;85.80;;;;;;5074681;28;20072;-92
2023/08/09 02:07:09;;;;;;;10.15;2.20;;;20.50;85.20;;;;;;5063854;28;19904;-90
2023/08/09 02:09:34;;;;;;;4.45;2.33;;;20.50;86.10;;;;;;5059194;28;20060;-89
2023/08/09 02:12:02;;;;;;;2.58;2.20;;;20.50;86.30;;;;;;5050835;28;20041;-91
2023/08/09 02:14:27;;;;;;;6.15;3.15;;;20.50;86.30;;;;;;5045937;28;20025;-89
2023/08/09 02:16:53;;;;;;;3.38;3.08;;;20.50;86.40;;;;;;5053136;28;20045;-92
2023/08/09 02:19:20;;;;;;;4.93;2.28;;;20.50;86.50;;;;;;5038760;28;20030;-92
2023/08/09 02:21:48;;;;;;;4.22;2.15;;;20.50;86.40;;;;;;5042158;28;20036;-92
2023/08/09 02:24:15;;;;;;;7.07;2.50;;;20.50;86.20;;;;;;5031506;28;20025;-90
2023/08/09 02:26:42;;;;;;;6.18;2.83;;;20.50;86.10;;;;;;5045996;28;20120;-92
2023/08/09 02:29:09;;;;;;;3.88;1.85;;;20.60;86.00;;;;;;5046614;28;20081;-91
2023/08/09 02:31:35;;;;;;;4.25;2.03;;;20.50;86.00;;;;;;5021863;28;20037;-90
2023/08/09 02:34:02;;;;;;;3.13;1.90;;;20.50;86.00;;;;;;5030453;28;20021;-90
2023/08/09 02:36:28;;;;;;;5.03;2.28;;;20.50;86.10;;;;;;5050329;28;20153;-89
2023/08/09 02:38:54;;;;;;;3.58;2.60;;;20.40;86.20;;;;;;5062987;28;20021;-89
2023/08/09 02:41:20;;;;;;;3.88;2.15;;;20.40;86.30;;;;;;5065508;28;20092;-90
2023/08/09 02:43:46;;;;;;;7.15;2.80;;;20.40;87.00;;;;;;5063905;28;20025;-90
2023/08/09 02:46:12;;;;;;;7.05;2.40;;;20.30;86.30;;;;;;5062606;28;20126;-90
2023/08/09 02:48:39;;;;;;;5.30;2.13;;;20.30;86.30;;;;;;5071138;28;20087;-90
2023/08/09 02:51:05;;;;;;;3.08;2.17;;;20.30;86.30;;;;;;5080286;28;20019;-89
2023/08/09 02:53:59;;;;;;;2.38;2.15;;;20.30;86.30;;;;;;5069088;28;20028;-90
2023/08/09 02:56:26;;;;;;;7.50;2.50;;;20.30;86.40;;;;;;5075431;28;20024;-88
2023/08/09 02:58:53;;;;;;;3.28;2.28;;;20.20;86.30;;;;;;5068796;28;20025;-89
2023/08/09 03:01:22;;;;;;;3.15;2.40;;;20.20;86.40;;;;;;5062666;28;20032;-84
2023/08/09 03:03:51;;;;;;;5.22;3.15;;;20.20;86.40;;;;;;5076747;28;20055;-87
2023/08/09 03:06:18;;;;;;;5.43;2.30;;;20.30;86.40;;;;;;5056664;28;20032;-87
2023/08/09 03:08:48;;;;;;;7.03;2.60;;;20.30;86.50;;;;;;5074954;28;20386;-85
2023/08/09 03:11:14;;;;;;;4.75;2.40;;;20.30;86.40;;;;;;5055908;28;20589;-86
2023/08/09 03:13:40;;;;;;;2.85;2.13;;;20.30;86.30;;;;;;5055164;28;20048;-86
2023/08/09 03:16:07;;;;;;;4.07;2.08;;;20.40;86.20;;;;;;5071302;28;20078;-86
2023/08/09 03:18:33;;;;;;;4.28;2.40;;;20.40;86.10;;;;;;5054348;28;20028;-85
2023/08/09 03:20:59;;;;;;;4.07;2.40;;;20.40;86.10;;;;;;5059304;28;20052;-85
2023/08/09 03:23:25;;;;;;;4.30;2.38;;;20.40;86.30;;;;;;5071852;28;20028;-85
2023/08/09 03:25:50;;;;;;;7.72;2.67;;;20.50;86.20;;;;;;5059520;28;20033;-84
2023/08/09 03:28:16;;;;;;;3.65;2.50;;;20.50;86.00;;;;;;5073190;28;20009;-86
2023/08/09 03:30:42;;;;;;;4.00;2.25;;;20.50;85.70;;;;;;5069958;28;20017;-85
2023/08/09 03:33:08;;;;;;;5.63;2.22;;;20.50;85.40;;;;;;5050539;28;20025;-89
2023/08/09 03:35:34;;;;;;;4.32;1.90;;;20.50;85.50;;;;;;5057806;28;20112;-85
2023/08/09 03:38:00;;;;;;;4.25;1.90;;;20.60;85.70;;;;;;5074907;28;20371;-85
2023/08/09 03:40:26;;;;;;;5.45;2.03;;;20.60;85.00;;;;;;5074920;28;20423;-85
2023/08/09 03:42:52;;;;;;;2.95;2.30;;;20.60;84.90;;;;;;5055159;28;20025;-83
2023/08/09 03:45:18;;;;;;;5.18;2.38;;;20.60;84.90;;;;;;5072470;28;20028;-87
2023/08/09 03:47:44;;;;;;;4.65;2.53;;;20.60;85.50;;;;;;5066080;28;20018;-87
2023/08/09 03:50:10;;;;;;;3.97;2.00;;;20.70;84.50;;;;;;5076405;28;20036;-87
2023/08/09 03:52:36;;;;;;;5.23;2.37;;;20.70;84.30;;;;;;5069818;28;20021;-87
2023/08/09 03:55:03;;;;;;;5.43;2.20;;;20.80;84.20;;;;;;5077936;28;20020;-90
2023/08/09 03:57:29;;;;;;;6.07;2.42;;;20.70;84.00;;;;;;5084925;28;20050;-87
2023/08/09 03:59:56;;;;;;;5.53;2.10;;;20.80;84.10;;;;;;5088944;28;20053;-89
2023/08/09 04:02:22;;;;;;;3.72;1.98;;;20.80;84.00;;;;;;5057270;28;20120;-90
2023/08/09 04:04:48;;;;;;;3.38;2.17;;;20.80;83.80;;;;;;5060113;28;20056;-90
2023/08/09 04:07:14;;;;;;;5.05;2.30;;;20.80;83.80;;;;;;5061505;28;20497;-88
2023/08/09 04:09:40;;;;;;;3.78;2.05;;;20.80;84.40;;;;;;5080184;28;20102;-89
2023/08/09 04:12:07;;;;;;;2.45;2.08;;;20.80;83.40;;;;;;5064997;28;20068;-89
2023/08/09 04:14:33;;;;;;;4.50;2.65;;;20.80;83.50;;;;;;5085208;28;20016;-90
2023/08/09 04:16:58;;;;;;;5.22;2.33;;;20.80;83.60;;;;;;5084730;28;20021;-90
2023/08/09 04:19:26;;;;;;;4.13;2.33;;;20.90;83.50;;;;;;5059410;28;20044;-90
2023/08/09 04:21:55;;;;;;;4.40;1.90;;;21.00;83.30;;;;;;5075859;28;20024;-91
2023/08/09 04:24:21;;;;;;;5.10;2.30;;;21.10;82.80;;;;;;5060341;28;20092;-90
2023/08/09 04:26:47;;;;;;;5.28;2.08;;;21.10;82.70;;;;;;5083869;28;20063;-90
2023/08/09 04:29:14;;;;;;;3.67;2.00;;;21.30;82.70;;;;;;5070311;28;20035;-88
2023/08/09 04:31:40;;;;;;;5.43;2.50;;;21.50;81.90;;;;;;5049299;28;20086;-88
2023/08/09 04:34:06;;;;;;;3.45;2.63;;;21.60;81.50;;;;;;5084687;28;20029;-91
2023/08/09 04:36:32;;;;;;;5.07;2.40;;;21.60;81.40;;;;;;5093462;28;20468;-87
2023/08/09 04:39:08;;;;;;;6.97;2.63;;;21.70;81.20;;;;;;5051312;28;20041;-87
2023/08/09 04:41:37;;;;;;;3.53;2.10;;;21.90;80.80;;;;;;5055832;28;20041;-86
2023/08/09 04:44:04;;;;;;;3.78;2.60;;;22.10;80.30;;;;;;5060610;28;20053;-85
2023/08/09 04:46:31;;;;;;;7.60;2.60;;;22.10;79.80;;;;;;5048423;28;20089;-88
2023/08/09 04:48:59;;;;;;;;;;;22.20;79.60;;;;;;5029516;28;20049;-91
2023/08/09 04:51:27;;;;;;;3.13;2.30;;;22.20;79.70;;;;;;5004167;28;19940;-91
2023/08/09 04:53:53;;;;;;;5.80;3.05;;;22.20;79.80;;;;;;4983337;28;20034;-91
2023/08/09 04:56:19;;;;;;;4.15;2.70;;;22.20;79.70;;;;;;4996402;28;20131;-92
2023/08/09 04:58:45;;;;;;;3.15;2.38;;;22.20;79.70;;;;;;4986342;28;20127;-90
2023/08/09 05:01:11;;;;;;;5.20;2.50;;;22.20;79.80;;;;;;4986578;28;20067;-91
2023/08/09 05:03:40;;;;;;;4.65;2.30;;;22.20;79.70;;;;;;4986277;28;20030;-92
2023/08/09 05:06:07;;;;;;;5.03;2.72;;;22.20;79.60;;;;;;4970831;28;20572;-91
2023/08/09 05:08:36;;;;;;;4.05;2.28;;;22.20;79.80;;;;;;4988943;28;20030;-92
2023/08/09 05:11:02;;;;;;;8.65;2.55;;;22.20;79.80;;;;;;5003543;28;20049;-87
2023/08/09 05:13:28;;;;;;;6.95;2.80;;;22.30;79.70;;;;;;5018585;28;20029;-90
2023/08/09 05:15:54;;;;;;;4.50;3.08;;;22.40;79.50;;;;;;5020081;28;20026;-88
2023/08/09 05:18:23;;;;;;;4.85;3.92;;;22.40;79.50;;;;;;5033717;28;20033;-90
2023/08/09 05:20:49;;;;;;;4.45;2.58;;;22.40;79.50;;;;;;5009779;28;20638;-87
2023/08/09 05:23:15;;;;;;;5.95;2.70;;;22.30;79.70;;;;;;5021948;28;20109;-87
2023/08/09 05:25:41;;;;;;;7.35;2.72;;;22.30;80.10;;;;;;5019005;28;20061;-88
2023/08/09 05:28:07;;;;;;;7.15;3.85;;;22.30;80.30;;;;;;5047760;28;20037;-87
2023/08/09 05:30:33;;;;;;;4.82;2.70;;;22.30;80.60;;;;;;5030032;28;20065;-87
2023/08/09 05:32:59;;;;;;;7.72;3.13;;;22.30;80.70;;;;;;5038583;28;20033;-85
2023/08/09 05:35:29;;;;;;;3.03;2.50;;;22.20;80.70;;;;;;5027565;28;20029;-89
2023/08/09 05:37:55;;;;;;;5.28;2.95;;;22.20;80.90;;;;;;4998320;28;20034;-90
2023/08/09 05:40:21;;;;;;;4.95;3.05;;;22.20;80.90;;;;;;5001797;28;20122;-91
2023/08/09 05:42:52;;;;;;;8.23;3.05;;;22.10;80.90;;;;;;4990831;28;20499;-93
2023/08/09 05:45:21;;;;;;;5.47;3.13;;;22.20;81.00;;;;;;5010489;28;20177;-90
2023/08/09 05:47:48;;;;;;;10.32;4.00;;;22.30;80.80;;;;;;4978767;28;20037;-87
2023/08/09 05:50:17;;;;;;;7.60;3.47;;;22.30;80.90;;;;;;4991592;28;20010;-92
2023/08/09 05:52:44;;;;;;;5.50;3.38;;;22.40;81.10;;;;;;4986806;28;20098;-90
2023/08/09 05:55:13;;;;;;;5.47;3.03;;;22.40;80.80;;;;;;4947303;29;20473;-85
2023/08/09 05:57:40;;;;;;;9.30;3.45;;;22.60;80.70;;;;;;4923576;29;20023;-84
2023/08/09 06:00:15;;;;;;;6.40;3.67;;;22.60;80.40;;;;;;4940638;29;20071;-89
2023/08/09 06:02:43;;;;;;;6.53;3.70;;;22.60;80.80;;;;;;4928928;29;20064;-90
2023/08/09 06:05:16;;;;;;;6.20;3.30;;;22.80;80.60;;;;;;4933351;29;20048;-90
2023/08/09 06:07:42;;;;;;;6.65;4.07;;;22.80;80.50;;;;;;4934996;29;20037;-89
2023/08/09 06:10:09;;;;;;;4.32;3.38;;;23.10;80.40;;;;;;4969714;28;20057;-90
2023/08/09 06:12:36;;;;;;;9.85;4.68;;;23.50;79.50;;;;;;4972009;28;20111;-89
2023/08/09 06:15:03;;;;;;;8.32;4.70;;;23.70;78.10;;;;;;4980449;28;20115;-89
2023/08/09 06:17:38;;;;;;;6.78;3.80;;;24.00;77.70;;;;;;5034810;23;20030;-84
2023/08/09 06:20:07;;;;;;;8.67;4.10;;;24.20;77.20;;;;;;4991722;28;20068;-87
2023/08/09 06:22:46;;;;;;;6.40;3.47;;;24.20;76.40;;;;;;5037560;28;20042;-90
2023/08/09 06:25:12;;;;;;;5.88;4.50;;;24.00;76.60;;;;;;5036103;28;20088;-93
2023/08/09 06:27:40;;;;;;;5.67;4.50;;;24.00;77.40;;;;;;5032792;28;20009;-92
2023/08/09 06:30:07;;;;;;;7.13;4.50;;;24.00;77.20;;;;;;5054820;28;20021;-93
2023/08/09 06:32:34;;;;;;;7.25;3.97;;;24.20;77.00;;;;;;5040950;28;20029;-92
2023/08/09 06:35:01;;;;;;;10.40;4.35;;;24.50;75.80;;;;;;5003682;28;20053;-93
2023/08/09 06:37:27;;;;;;;6.28;4.00;;;24.70;75.10;;;;;;4998301;28;20085;-92
2023/08/09 06:39:53;;;;;;;5.53;4.22;;;24.80;74.70;;;;;;5017782;28;20034;-91
2023/08/09 06:42:25;;;;;;;7.03;4.32;;;25.00;74.60;;;;;;5000015;28;20050;-93
2023/08/09 06:44:55;;;;;;;8.82;4.82;;;25.20;73.90;;;;;;4996992;28;20155;-85
2023/08/09 06:47:23;;;;;;;9.23;4.10;;;25.40;73.80;;;;;;4979121;28;20055;-92
2023/08/09 06:49:49;;;;;;;7.75;4.75;;;25.30;73.40;;;;;;4994765;28;20046;-92
2023/08/09 06:52:15;;;;;;;4.53;3.58;;;25.40;73.60;;;;;;4975483;28;20031;-92
2023/08/09 06:54:42;;;;;;;9.77;5.05;;;25.40;73.60;;;;;;4955343;29;20047;-92
2023/08/09 06:57:11;;;;;;;6.25;4.35;;;26.10;72.60;;;;;;4948804;29;20045;-93
2023/08/09 06:59:40;;;;;;;7.93;5.10;;;27.10;71.40;;;;;;4976518;29;20043;-92
2023/08/09 07:02:08;;;;;;;8.10;6.60;;;28.70;68.10;;;;;;4932521;29;20074;-91
2023/08/09 07:04:37;;;;;;;7.18;5.18;;;28.80;66.50;;;;;;4974402;28;20043;-92
2023/08/09 07:07:05;;;;;;;7.85;4.65;;;30.20;61.70;;;;;;4944700;29;20063;-91
2023/08/09 07:09:31;;;;;;;9.32;4.85;;;30.10;62.10;;;;;;4955587;29;20398;-92
2023/08/09 07:12:00;;;;;;;7.47;4.30;;;30.00;61.30;;;;;;4963798;28;20038;-94
2023/08/09 07:14:28;;;;;;;9.50;5.13;;;29.30;62.90;;;;;;4991057;28;20098;-92
2023/08/09 07:16:54;;;;;;;9.70;5.55;;;28.60;64.00;;;;;;4976827;28;20039;-92
2023/08/09 07:19:21;;;;;;;6.28;5.65;;;28.20;65.80;;;;;;4995021;28;20034;-91
2023/08/09 07:21:48;;;;;;;9.07;6.55;;;29.10;65.10;;;;;;4972682;29;20039;-92
2023/08/09 07:24:16;;;;;;;10.23;6.57;;;29.80;63.10;;;;;;4980487;28;20031;-92
2023/08/09 07:26:44;;;;;;;7.97;6.50;;;30.50;61.90;;;;;;4989757;28;20034;-93
2023/08/09 07:29:11;;;;;;;8.05;5.63;;;31.60;59.90;;;;;;4947973;28;20045;-92
2023/08/09 07:31:38;;;;;;;9.38;4.88;;;32.60;57.70;;;;;;5007215;28;20061;-91
2023/08/09 07:34:05;;;;;;;9.23;5.57;;;33.40;55.10;;;;;;5004245;28;20038;-93
2023/08/09 07:36:34;;;;;;;9.10;5.82;;;33.40;55.10;;;;;;4992852;28;20054;-93
2023/08/09 07:39:03;;;;;;;6.13;5.28;;;32.70;55.20;;;;;;4971719;28;20073;-94
2023/08/09 07:41:29;;;;;;;7.97;5.65;;;31.60;56.30;;;;;;4975897;28;20078;-93
2023/08/09 07:43:57;;;;;;;6.53;4.75;;;30.50;58.40;;;;;;5008313;28;20026;-91
2023/08/09 07:46:23;;;;;;;5.35;4.88;;;29.50;60.50;;;;;;5001850;28;20057;-92
2023/08/09 07:48:52;;;;;;;11.02;4.90;;;28.80;62.20;;;;;;5016208;28;20025;-88
2023/08/09 07:51:18;;;;;;;10.55;5.30;;;;;;;;;;4981378;28;20015;-91
2023/08/09 07:53:48;;;;;;;10.13;5.07;;;28.30;63.40;;;;;;4996677;28;20034;-91
2023/08/09 07:56:16;;;;;;;8.30;5.43;;;27.70;65.20;;;;;;4984775;28;20116;-91
2023/08/09 07:58:43;;;;;;;7.07;4.55;;;;;;;;;;4972675;28;20031;-92
2023/08/09 08:01:10;;;;;;;11.02;5.00;;;;;;;;;;4994188;28;20031;-93
2023/08/09 08:03:36;;;;;;;7.88;3.92;;;27.60;65.70;;;;;;5000478;28;20114;-93
2023/08/09 08:06:04;;;;;;;10.18;3.70;;;28.20;66.10;;;;;;5049993;28;20038;-93
2023/08/09 08:08:32;;;;;;;8.90;4.65;;;29.30;63.20;;;;;;5053264;28;20030;-90
2023/08/09 08:11:07;;;;;;;13.52;4.65;;;29.70;60.60;;;;;;5019179;28;20035;-91
2023/08/09 08:13:33;;;;;;;11.20;5.00;;;29.30;60.80;;;;;;5009798;28;20100;-93
2023/08/09 08:16:04;;;;;;;7.72;3.88;;;29.10;61.60;;;;;;5051880;28;20051;-91
2023/08/09 08:18:31;;;;;;;14.80;4.43;;;29.20;61.50;;;;;;5038861;28;20098;-89
2023/08/09 08:21:05;;;;;;;11.02;4.22;;;29.10;61.60;;;;;;5038302;28;20053;-92
2023/08/09 08:23:33;;;;;;;11.15;4.38;;;29.10;61.50;;;;;;4990122;28;20018;-92
2023/08/09 08:26:02;;;;;;;14.02;4.38;;;29.20;61.20;;;;;;5021470;28;20041;-90
2023/08/09 08:28:30;;;;;;;14.35;4.45;;;29.10;60.90;;;;;;5051933;28;20017;-90
2023/08/09 08:30:56;;;;;;;9.05;4.35;;;29.00;61.60;;;;;;5003421;28;20037;-90
2023/08/09 08:33:27;;;;;;;13.60;8.02;;;29.20;61.30;;;;;;5021301;28;20021;-89
2023/08/09 08:35:59;;;;;;;9.20;5.82;;;29.30;60.60;;;;;;5023795;28;20060;-86
2023/08/09 08:38:29;;;;;;;5.72;3.78;;;29.40;60.40;;;;;;5054019;28;20013;-89
2023/08/09 08:40:57;;;;;;;6.80;3.97;;;29.30;60.30;;;;;;5041764;28;20017;-91
2023/08/09 08:43:24;;;;;;;10.25;4.03;;;28.80;61.10;;;;;;5000617;28;20069;-92
2023/08/09 08:45:53;;;;;;;7.50;3.63;;;28.50;62.10;;;;;;4955898;29;20047;-90
2023/08/09 08:48:20;;;;;;;11.05;3.45;;;28.10;62.50;;;;;;4957356;29;20028;-92
2023/08/09 08:50:50;;;;;;;7.95;3.78;;;27.60;63.00;;;;;;4983182;28;20090;-94
2023/08/09 08:53:16;;;;;;;10.80;3.88;;;;;;;;;;4992304;28;20031;-90
2023/08/09 08:55:43;;;;;;;7.72;3.53;;;;;;;;;;4982337;28;20051;-91
2023/08/09 08:58:27;;;;;;;5.88;3.30;;;;;;;;;;4944272;29;20149;-93
2023/08/09 09:00:55;;;;;;;7.65;3.60;;;;;;;;;;4967619;28;20074;-89
2023/08/09 09:03:21;;;;;;;8.32;4.40;;;;;;;;;;4985928;28;20030;-93
2023/08/09 09:05:48;;;;;;;6.30;3.85;;;;;;;;;;4984717;28;20038;-92
2023/08/09 09:08:14;;;;;;;13.30;3.75;;;;;;;;;;4972056;29;20027;-92
2023/08/09 09:10:45;;;;;;;9.25;4.32;;;;;;;;;;4967607;29;20122;-92
2023/08/09 09:13:33;;;;;;;9.77;3.30;;;;;;;;;;4937179;29;20040;-94
2023/08/09 09:15:59;;;;;;;8.73;3.45;;;;;;;;;;4943063;29;20039;-88
2023/08/09 09:18:31;;;;;;;5.68;2.88;;;;;;;;;;5023455;28;20049;-90
2023/08/09 09:20:58;;;;;;;11.18;3.83;;;;;;;;;;4985885;28;20030;-92
2023/08/09 09:23:27;;;;;;;8.18;3.58;;;;;;;;;;5010160;28;20043;-93
2023/08/09 09:26:03;;;;;;;7.75;3.40;;;;;;;;;;5008650;28;20034;-90
2023/08/09 09:28:30;;;;;;;7.25;3.50;;;;;;;;;;5009558;28;20069;-93
2023/08/09 09:30:58;;;;;;;9.35;3.47;;;;;;;;;;5016207;28;20014;-94
2023/08/09 09:33:34;;;;;;;7.90;3.10;;;;;;;;;;5011801;28;20122;-91
2023/08/09 09:36:01;;;;;;;4.93;3.22;;;;;;;;;;4981562;28;20091;-92
2023/08/09 09:38:27;;;;;;;;;;;;;;;;;;4978401;28;20031;-91
2023/08/09 09:40:56;;;;;;;10.10;3.50;;;;;;;;;;5001009;28;19921;-92
2023/08/09 09:43:24;;;;;;;8.48;3.65;;;;;;;;;;5019979;28;20247;-93
2023/08/09 09:45:56;;;;;;;6.43;3.45;;;;;;;;;;5016711;28;20049;-91
2023/08/09 09:48:26;;;;;;;3.90;2.95;;;;;;;;;;4969027;28;20047;-91
2023/08/09 09:50:52;;;;;;;7.70;3.78;;;;;;;;;;4925715;29;20050;-94
2023/08/09 09:53:22;;;;;;;6.30;3.75;;;;;;;;;;4914710;29;20055;-94
2023/08/09 09:55:50;;;;;;;8.43;3.85;;;;;;;;;;4913417;29;20029;-90
2023/08/09 09:58:17;;;;;;;6.55;3.60;;;;;;;;;;4897665;29;20097;-92
2023/08/09 10:00:52;;;;;;;5.63;3.87;;;;;;;;;;4892571;29;20145;-93
2023/08/09 10:03:23;;;;;;;6.10;3.10;;;;;;;;;;4869985;29;20040;-91
2023/08/09 10:05:53;;;;;;;13.73;4.35;;;;;;;;;;4887387;29;20559;-93
2023/08/09 10:08:28;;;;;;;5.68;3.60;;;;;;;;;;4882272;29;20037;-92
2023/08/09 10:10:57;;;;;;;7.70;3.70;;;;;;;;;;4874417;29;20049;-94
2023/08/09 10:13:54;;;;;;;8.55;3.72;;;;;;;;;;4868591;29;20057;-95
2023/08/09 10:16:20;;;;;;;;;;;;;;;;;;4860191;29;20049;-93
2023/08/09 10:18:52;;;;;;;10.07;3.92;;;;;;;;;;4869406;29;19919;-93
2023/08/09 10:21:19;;;;;;;7.82;3.58;;;;;;;;;;4902325;29;20546;-92
2023/08/09 10:23:56;;;;;;;7.60;4.18;;;;;;;;;;4913599;29;20056;-90
2023/08/09 10:26:22;;;;;;;;;;;;;;;;;;4911222;29;20085;-92
2023/08/09 10:28:50;;;;;;;6.85;3.90;;;;;;;;;;4912649;29;19931;-94
2023/08/09 10:31:40;;;;;;;4.53;3.33;;;;;;;;;;4909539;29;20053;-91
2023/08/09 10:34:29;;;;;;;8.38;3.45;;;;;;;;;;4898224;29;20026;-90
2023/08/09 10:37:00;;;;;;;6.03;4.18;;;;;;;;;;4857657;29;20069;-91
2023/08/09 10:39:30;;;;;;;10.07;3.70;;;;;;;;;;4832872;29;20026;-91
2023/08/09 10:41:58;;;;;;;6.82;3.30;;;;;;;;;;4863217;29;20038;-90
2023/08/09 10:44:34;;;;;;;7.88;4.57;;;;;;;;;;4862729;29;20068;-91
2023/08/09 10:47:15;;;;;;;5.57;3.50;;;;;;;;;;4873886;29;20045;-92
2023/08/09 10:50:05;;;;;;;8.85;4.10;;;;;;;;;;4898977;29;20092;-93
2023/08/09 10:52:43;;;;;;;8.13;3.50;;;;;;;;;;4898437;29;20051;-91
2023/08/09 10:55:44;;;;;;;6.50;3.88;;;;;;;;;;4896566;29;20036;-92
2023/08/09 10:58:17;;;;;;;6.40;3.17;;;;;;;;;;4830116;29;20063;-92
2023/08/09 11:00:43;;;;;;;13.27;4.40;;;;;;;;;;4854672;29;20049;-88
2023/08/09 11:03:12;;;;;;;8.55;4.25;;;;;;;;;;4895919;29;20411;-89
2023/08/09 11:05:45;;;;;;;5.40;3.97;;;;;;;;;;4880769;29;20052;-92
2023/08/09 11:08:18;;;;;;;6.25;4.07;;;;;;;;;;4901801;29;20048;-90
2023/08/09 11:10:48;;;;;;;8.43;3.72;;;;;;;;;;4884279;29;20040;-92
2023/08/09 11:13:19;;;;;;;8.50;3.80;;;;;;;;;;4908420;29;20036;-91
2023/08/09 11:15:53;;;;;;;6.20;4.50;;;;;;;;;;4936607;29;20052;-91
2023/08/09 11:18:22;;;;;;;9.63;6.18;;;;;;;;;;4931167;29;20103;-91
2023/08/09 11:20:50;;;;;;;4.65;3.47;;;;;;;;;;4955703;29;20039;-93
2023/08/09 11:23:20;;;;;;;5.70;3.17;;;;;;;;;;4956878;29;20015;-93
2023/08/09 11:25:51;;;;;;;4.18;3.78;;;;;;;;;;4939973;29;20040;-93
2023/08/09 11:28:19;;;;;;;6.75;3.83;;;;;;;;;;4934980;29;20062;-93
2023/08/09 11:30:53;;;;;;;5.15;3.35;;;;;;;;;;4924924;29;20039;-88
2023/08/09 11:33:19;;;;;;;6.68;3.38;;;;;;;;;;4988498;28;20081;-90
2023/08/09 11:35:49;;;;;;;6.75;5.80;;;;;;;;;;5036823;28;20014;-86
2023/08/09 11:38:16;;;;;;;6.50;4.50;;;;;;;;;;5034527;28;20071;-89
2023/08/09 11:40:44;;;;;;;8.20;4.07;;;;;;;;;;5033640;28;20029;-90
2023/08/09 11:43:12;;;;;;;5.65;3.38;;;;;;;;;;5034903;28;20006;-90
2023/08/09 11:45:48;;;;;;;7.75;3.30;;;;;;;;;;5022366;28;20093;-90
2023/08/09 11:48:47;;;;;;;4.85;3.30;;;;;;;;;;5037201;28;20014;-91
2023/08/09 11:51:19;;;;;;;7.57;4.38;;;;;;;;;;4990327;28;20096;-92
2023/08/09 11:53:47;;;;;;;7.53;3.60;;;;;;;;;;4982229;28;20027;-93
2023/08/09 11:56:16;;;;;;;6.60;3.30;;;;;;;;;;4973513;28;20039;-93
2023/08/09 11:58:45;;;;;;;5.78;3.40;;;;;;;;;;4990794;28;20154;-92
2023/08/09 12:01:23;;;;;;;7.68;3.17;;;;;;;;;;4986526;28;20042;-92
2023/08/09 12:03:53;;;;;;;4.30;3.58;;;;;;;;;;4951305;29;20035;-91
2023/08/09 12:06:19;;;;;;;7.95;3.15;;;;;;;;;;4984429;28;20034;-91
2023/08/09 12:08:47;;;;;;;5.82;3.60;;;;;;;;;;4985984;28;20050;-91
2023/08/09 12:11:18;;;;;;;6.32;3.50;;;;;;;;;;4968220;28;20146;-92
2023/08/09 12:13:45;;;;;;;4.32;3.35;;;;;;;;;;4977502;28;20023;-92
2023/08/09 12:16:12;;;;;;;6.50;3.85;;;;;;;;;;4957658;29;20063;-91
2023/08/09 12:18:48;;;;;;;7.00;3.58;;;;;;;;;;4951588;28;20047;-92
2023/08/09 12:21:14;;;;;;;6.45;4.07;;;;;;;;;;4971318;28;20103;-91
2023/08/09 12:23:41;;;;;;;6.43;3.60;;;;;;;;;;4972158;28;20027;-92
2023/08/09 12:26:08;;;;;;;9.00;5.05;;;;;;;;;;4989569;28;20070;-90
2023/08/09 12:28:37;;;;;;;9.45;6.15;;;;;;;;;;5014438;28;20034;-91
2023/08/09 12:31:03;;;;;;;7.05;4.20;;;;;;;;;;5035588;28;20042;-89
2023/08/09 12:33:30;;;;;;;6.32;4.05;;;;;;;;;;5015354;28;20060;-94
2023/08/09 12:36:03;;;;;;;7.43;4.57;;;;;;;;;;5011186;28;20048;-95
2023/08/09 12:38:29;;;;;;;7.55;4.53;;;;;;;;;;5016626;28;20061;-92
2023/08/09 12:40:59;;;;;;;4.35;3.90;;;;;;;;;;5034490;28;20045;-90
2023/08/09 12:43:28;;;;;;;6.43;4.15;;;;;;;;;;5022615;28;20034;-90
2023/08/09 12:45:55;;;;;;;7.35;4.20;;;;;;;;;;5027079;28;20046;-93
2023/08/09 12:48:21;;;;;;;5.72;4.32;;;;;;;;;;5005873;28;20026;-91
2023/08/09 12:50:47;;;;;;;9.30;3.93;;;;;;;;;;5022968;28;20041;-92
2023/08/09 12:53:15;;;;;;;5.00;3.30;;;;;;;;;;5015217;28;20038;-90
2023/08/09 12:55:43;;;;;;;6.53;4.10;;;;;;;;;;5028079;28;20041;-93
2023/08/09 12:58:12;;;;;;;9.25;4.68;;;;;;;;;;5011804;28;20026;-91
2023/08/09 13:00:42;;;;;;;7.90;3.95;;;;;;;;;;5005019;28;20038;-90
2023/08/09 13:03:22;;;;;;;5.20;3.83;;;;;;;;;;4971442;28;20035;-92
2023/08/09 13:08:29;;;;;;;12.15;3.50;;;;;;;;;;5013400;27;4410492;-93
2023/08/09 13:10:57;;;;;;;5.47;3.30;;;;;;;;;;5132969;28;20031;-91
2023/08/09 13:13:23;;;;;;;8.85;3.88;;;;;;;;;;5133681;28;20011;-94
2023/08/09 13:15:51;;;;;;;7.95;4.03;;;;;;;;;;5092693;28;20029;-90
2023/08/09 13:18:17;;;;;;;7.90;3.50;;;;;;;;;;5075209;28;20033;-92
2023/08/09 13:20:52;;;;;;;10.18;4.38;;;;;;;;;;5077408;28;20040;-92
2023/08/09 13:23:20;;;;;;;;;;;;;;;;;;5058680;28;20049;-93
2023/08/09 13:25:46;;;;;;;9.63;7.95;;;;;;;;;;5071481;28;19904;-91
2023/08/09 13:28:12;;;;;;;10.10;5.07;;;;;;;;;;5067212;28;20044;-90
2023/08/09 13:30:39;;;;;;;5.68;3.72;;;;;;;;;;5086286;28;20028;-91
2023/08/09 13:33:05;;;;;;;9.88;5.05;;;;;;;;;;5062514;28;20041;-92
2023/08/09 13:35:45;;;;;;;12.87;5.10;;;;;;;;;;5066300;28;20096;-95